Time;durP1;ratioP1;P1;durP2;ratioP2;P2;SDS_P1;SDS_P2;PMS_P1;PMS_P2;Temp;Humidity;BMP_temperature;BMP_pressure;BME280_temperature;BME280_humidity;BME280_pressure;Samples;Min_cycle;Max_cycle;Signal;HPM_P1;HPM_P2
2022/08/31 00:04:58;;;;;;;9.18;3.40;;;;;;;20.34;55.33;99589.66;5061307;28;20044;-56
2022/08/31 00:07:24;;;;;;;6.57;3.70;;;;;;;20.34;54.56;99600.53;5065491;28;20033;-55
2022/08/31 00:09:49;;;;;;;7.38;3.72;;;;;;;20.32;54.74;99596.50;5065146;28;20304;-55
2022/08/31 00:12:15;;;;;;;9.98;3.95;;;;;;;20.27;55.40;99602.88;5093237;28;20050;-56
2022/08/31 00:14:40;;;;;;;9.27;3.47;;;;;;;20.22;55.40;99603.75;5066953;28;20033;-56
2022/08/31 00:17:06;;;;;;;12.43;3.60;;;;;;;20.28;55.67;99596.31;5071816;28;20070;-55
2022/08/31 00:19:31;;;;;;;8.27;3.80;;;;;;;20.17;56.76;99611.19;5067081;28;20471;-53
2022/08/31 00:21:57;;;;;;;16.23;4.43;;;;;;;20.02;62.21;99604.88;5071616;28;20471;-52
2022/08/31 00:24:22;;;;;;;9.98;4.18;;;;;;;19.94;65.56;99613.69;5060354;28;20040;-55
2022/08/31 00:26:48;;;;;;;13.43;3.95;;;;;;;19.72;66.76;99608.88;5062761;28;20028;-53
2022/08/31 00:29:13;;;;;;;13.02;4.40;;;;;;;19.43;69.04;99603.50;5064812;28;20040;-54
2022/08/31 00:31:39;;;;;;;27.50;5.43;;;;;;;19.46;69.35;99608.38;5070534;28;20409;-54
2022/08/31 00:34:04;;;;;;;12.90;4.13;;;;;;;19.14;65.96;99607.13;5071639;28;20017;-54
2022/08/31 00:36:30;;;;;;;11.18;4.13;;;;;;;19.04;67.33;99603.72;5066181;28;20044;-55
2022/08/31 00:38:55;;;;;;;12.18;5.13;;;;;;;18.89;69.29;99601.97;5071625;28;20517;-54
2022/08/31 00:41:24;;;;;;;13.05;5.18;;;;;;;18.63;73.22;99606.84;5060327;28;20033;-55
2022/08/31 00:44:08;;;;;;;9.57;5.10;;;;;;;18.43;71.96;99605.94;5065999;28;20025;-54
2022/08/31 00:46:37;;;;;;;9.07;5.03;;;;;;;18.41;71.87;99594.56;5071386;28;20047;-54
2022/08/31 00:49:08;;;;;;;11.90;5.50;;;;;;;18.25;73.58;99599.31;5068902;28;20106;-54
2022/08/31 00:51:36;;;;;;;12.73;5.70;;;;;;;18.13;72.98;99604.28;5062320;28;20033;-55
2022/08/31 00:54:03;;;;;;;15.07;5.68;;;;;;;17.96;74.23;99603.88;5068203;28;20016;-54
2022/08/31 00:56:30;;;;;;;11.38;5.70;;;;;;;18.05;76.30;99610.31;5063103;28;20119;-54
2022/08/31 00:58:55;;;;;;;14.35;5.95;;;;;;;18.05;81.14;99607.63;5060403;28;20472;-54
2022/08/31 01:01:21;;;;;;;13.40;6.57;;;;;;;18.03;82.47;99601.66;5068102;28;20040;-55
2022/08/31 01:03:46;;;;;;;11.43;6.18;;;;;;;17.81;80.89;99613.72;5066542;28;20064;-53
2022/08/31 01:06:13;;;;;;;16.20;6.28;;;;;;;17.86;81.57;99607.47;5069955;28;20045;-54
2022/08/31 01:08:40;;;;;;;14.23;6.10;;;;;;;17.92;81.86;99608.22;5066477;28;20021;-54
2022/08/31 01:11:06;;;;;;;11.82;6.50;;;;;;;18.02;82.74;99614.41;5068569;28;20596;-54
2022/08/31 01:13:31;;;;;;;16.30;6.90;;;;;;;17.95;86.02;99610.41;5098863;28;20375;-54
2022/08/31 01:16:01;;;;;;;13.52;7.03;;;;;;;17.90;87.29;99605.81;5065667;28;20471;-54
2022/08/31 01:18:26;;;;;;;13.93;7.07;;;;;;;17.73;87.18;99622.44;5065191;28;20020;-55
2022/08/31 01:20:58;;;;;;;17.90;7.03;;;;;;;17.57;86.53;99624.41;5068865;28;20374;-56
2022/08/31 01:23:26;;;;;;;11.07;7.65;;;;;;;17.48;86.18;99620.66;5069152;28;20028;-54
2022/08/31 01:25:53;;;;;;;11.18;6.88;;;;;;;17.52;87.44;99618.19;5070167;28;20039;-53
2022/08/31 01:28:18;;;;;;;18.13;7.75;;;;;;;17.55;87.40;99628.50;5069045;28;20038;-55
2022/08/31 01:30:52;;;;;;;16.38;8.02;;;;;;;17.53;86.36;99636.09;5069884;28;20481;-55
2022/08/31 01:33:17;;;;;;;16.33;7.07;;;;;;;17.51;83.49;99638.25;5068874;28;20028;-54
2022/08/31 01:35:43;;;;;;;14.77;7.35;;;;;;;17.49;82.52;99648.56;5069495;28;20521;-54
2022/08/31 01:38:09;;;;;;;12.38;7.82;;;;;;;17.54;82.53;99645.81;5059749;28;20029;-54
2022/08/31 01:40:44;;;;;;;15.73;8.38;;;;;;;17.72;84.46;99645.19;5058872;28;20028;-54
2022/08/31 01:43:10;;;;;;;12.63;6.18;;;;;;;17.80;75.52;99654.69;5061767;28;20056;-55
2022/08/31 01:45:35;;;;;;;17.20;6.90;;;;;;;17.85;74.16;99663.59;5064442;28;20411;-54
2022/08/31 01:48:00;;;;;;;13.50;8.07;;;;;;;17.47;86.30;99662.38;5058599;28;20103;-54
2022/08/31 01:50:26;;;;;;;20.85;8.27;;;;;;;17.37;85.01;99665.97;5047417;28;20024;-54
2022/08/31 01:52:51;;;;;;;16.27;8.38;;;;;;;17.29;86.76;99665.72;5068247;28;20438;-55
2022/08/31 01:55:17;;;;;;;18.83;8.45;;;;;;;17.30;83.62;99668.16;5058338;28;20040;-55
2022/08/31 01:57:45;;;;;;;16.73;9.20;;;;;;;16.87;85.47;99664.19;5063893;28;20360;-56
2022/08/31 02:00:11;;;;;;;18.00;8.65;;;;;;;17.21;82.75;99664.38;5066036;28;20028;-54
2022/08/31 02:02:37;;;;;;;21.73;8.85;;;;;;;17.24;86.66;99671.94;5063236;28;20052;-55
2022/08/31 02:05:03;;;;;;;20.42;9.13;;;;;;;17.31;83.82;99667.06;5065288;28;20049;-55
2022/08/31 02:07:28;;;;;;;16.73;9.38;;;;;;;17.31;85.68;99664.34;5068283;28;20036;-54
2022/08/31 02:09:54;;;;;;;19.88;9.77;;;;;;;17.16;88.48;99664.41;5065590;28;20090;-54
2022/08/31 02:12:19;;;;;;;20.73;10.00;;;;;;;17.15;88.40;99668.19;5069396;28;20482;-54
2022/08/31 02:14:45;;;;;;;20.02;9.80;;;;;;;17.11;89.31;99667.13;5067316;28;20029;-55
2022/08/31 02:17:10;;;;;;;17.98;9.43;;;;;;;17.13;86.40;99673.06;5063643;28;20028;-54
2022/08/31 02:19:38;;;;;;;20.63;9.70;;;;;;;17.27;85.53;99674.09;5066998;28;20032;-54
2022/08/31 02:22:04;;;;;;;20.35;10.30;;;;;;;17.46;85.57;99679.75;5069321;28;20032;-54
2022/08/31 02:24:29;;;;;;;18.88;11.02;;;;;;;17.35;90.17;99681.69;5069310;28;20036;-53
2022/08/31 02:26:54;;;;;;;22.52;11.20;;;;;;;17.24;92.56;99680.06;5064203;28;20399;-54
2022/08/31 02:29:20;;;;;;;19.67;10.45;;;;;;;17.19;93.08;99682.78;5066044;28;20223;-54
2022/08/31 02:31:46;;;;;;;18.15;10.80;;;;;;;17.16;94.01;99680.66;5057208;28;20598;-55
2022/08/31 02:34:12;;;;;;;21.02;11.77;;;;;;;16.94;95.31;99692.59;5069530;28;20035;-54
2022/08/31 02:36:38;;;;;;;21.55;12.18;;;;;;;16.81;95.80;99690.44;5069028;28;20440;-55
2022/08/31 02:39:03;;;;;;;22.27;11.63;;;;;;;16.61;94.23;99689.34;5065695;28;20040;-54
2022/08/31 02:41:29;;;;;;;22.33;12.95;;;;;;;16.39;96.41;99694.22;5059345;28;20368;-54
2022/08/31 02:43:54;;;;;;;19.65;12.75;;;;;;;16.55;95.54;99684.22;5069174;28;20036;-55
2022/08/31 02:46:20;;;;;;;30.60;14.00;;;;;;;16.69;92.76;99695.28;5059731;28;20020;-55
2022/08/31 02:48:45;;;;;;;29.15;12.98;;;;;;;16.77;90.79;99692.03;5059962;28;20025;-55
2022/08/31 02:51:11;;;;;;;24.70;12.85;;;;;;;16.79;91.05;99696.13;5063970;28;20499;-54
2022/08/31 02:53:36;;;;;;;25.30;13.80;;;;;;;16.82;95.42;99702.88;5065233;28;20036;-55
2022/08/31 02:56:02;;;;;;;31.50;13.70;;;;;;;16.73;97.42;99696.38;5054009;28;20167;-54
2022/08/31 02:58:27;;;;;;;30.45;14.55;;;;;;;16.71;97.91;99698.56;5057402;28;21358;-55
2022/08/31 03:00:53;;;;;;;29.45;15.00;;;;;;;16.59;99.07;99694.22;5072678;28;20025;-55
2022/08/31 03:03:19;;;;;;;27.85;12.85;;;;;;;16.45;96.13;99692.31;5069568;28;20032;-55
2022/08/31 03:05:44;;;;;;;30.67;13.35;;;;;;;16.55;94.57;99685.03;5065280;28;20040;-55
2022/08/31 03:08:09;;;;;;;24.30;13.32;;;;;;;16.57;94.92;99685.56;5069784;28;20036;-55
2022/08/31 03:10:35;;;;;;;21.50;13.15;;;;;;;16.51;95.13;99683.94;5068328;28;20045;-55
2022/08/31 03:13:00;;;;;;;24.95;13.30;;;;;;;16.54;91.83;99682.56;5055991;28;20032;-55
2022/08/31 03:15:26;;;;;;;20.60;12.57;;;;;;;16.58;89.94;99684.47;5055692;28;20032;-54
2022/08/31 03:17:54;;;;;;;24.98;13.77;;;;;;;16.60;88.73;99682.31;5052829;28;20418;-53
2022/08/31 03:20:20;;;;;;;25.05;13.27;;;;;;;16.55;89.22;99681.50;5072190;28;20497;-54
2022/08/31 03:22:46;;;;;;;25.77;13.32;;;;;;;16.51;88.92;99678.53;5071590;28;20020;-53
2022/08/31 03:25:11;;;;;;;26.90;12.95;;;;;;;16.50;87.66;99679.63;5064207;28;20414;-53
2022/08/31 03:27:37;;;;;;;21.42;12.10;;;;;;;16.51;87.86;99678.53;5069026;28;20036;-54
2022/08/31 03:30:05;;;;;;;23.17;11.95;;;;;;;16.41;88.07;99666.91;5063019;28;20025;-53
2022/08/31 03:32:30;;;;;;;25.08;12.43;;;;;;;16.36;88.26;99665.00;5092952;28;20025;-54
2022/08/31 03:34:57;;;;;;;30.33;13.05;;;;;;;16.33;89.25;99665.53;5067334;28;20024;-54
2022/08/31 03:37:23;;;;;;;24.08;12.98;;;;;;;16.27;90.16;99662.00;5069135;28;20075;-56
2022/08/31 03:39:48;;;;;;;25.67;13.40;;;;;;;16.19;90.90;99657.13;5071173;28;20060;-54
2022/08/31 03:42:14;;;;;;;25.85;13.18;;;;;;;16.17;91.59;99656.59;5071948;28;20036;-56
2022/08/31 03:44:39;;;;;;;22.20;12.50;;;;;;;16.14;91.61;99647.13;5097467;28;20485;-55
2022/08/31 03:47:05;;;;;;;24.17;13.15;;;;;;;16.13;91.83;99644.69;5061962;28;20070;-55
2022/08/31 03:49:30;;;;;;;24.35;13.98;;;;;;;16.13;92.07;99642.81;5067753;28;20024;-55
2022/08/31 03:51:56;;;;;;;27.10;13.43;;;;;;;16.10;91.83;99646.06;5063471;28;20025;-53
2022/08/31 03:54:21;;;;;;;28.63;14.10;;;;;;;16.08;91.82;99642.81;5055600;28;20021;-54
2022/08/31 03:56:47;;;;;;;26.80;14.75;;;;;;;16.01;93.43;99644.94;5054977;28;20032;-55
2022/08/31 03:59:12;;;;;;;33.17;15.00;;;;;;;15.98;93.01;99648.19;5066831;28;20029;-54
2022/08/31 04:01:38;;;;;;;29.38;14.75;;;;;;;15.91;93.36;99644.94;5066886;28;20444;-53
2022/08/31 04:04:03;;;;;;;25.63;15.02;;;;;;;15.88;94.63;99648.19;5055221;28;20099;-57
2022/08/31 04:06:29;;;;;;;26.15;14.60;;;;;;;15.86;95.97;99650.31;5065271;28;20045;-53
2022/08/31 04:08:54;;;;;;;27.58;15.77;;;;;;;15.79;96.46;99649.75;5070805;28;20404;-55
2022/08/31 04:11:20;;;;;;;23.50;14.52;;;;;;;15.70;96.45;99644.06;5071735;28;20035;-54
2022/08/31 04:13:46;;;;;;;25.67;15.55;;;;;;;15.68;97.44;99655.13;5070544;28;20060;-56
2022/08/31 04:16:13;;;;;;;31.33;16.73;;;;;;;15.60;98.86;99652.94;5101549;28;20544;-56
2022/08/31 04:18:39;;;;;;;30.88;16.20;;;;;;;15.50;99.23;99656.41;5067766;28;20029;-56
2022/08/31 04:21:11;;;;;;;31.60;16.38;;;;;;;15.48;100.00;99646.94;5058588;28;20028;-56
2022/08/31 04:23:39;;;;;;;30.23;17.35;;;;;;;15.44;100.00;99643.13;5071755;28;20638;-56
2022/08/31 04:26:05;;;;;;;37.92;17.92;;;;;;;15.39;100.00;99641.22;5071491;28;20059;-55
2022/08/31 04:28:30;;;;;;;31.63;17.65;;;;;;;15.35;100.00;99644.72;5065529;28;20025;-54
2022/08/31 04:30:56;;;;;;;35.33;16.42;;;;;;;15.32;100.00;99644.19;5060622;28;20025;-55
2022/08/31 04:33:21;;;;;;;28.70;17.30;;;;;;;15.32;100.00;99652.28;5071497;28;20036;-56
2022/08/31 04:35:47;;;;;;;36.53;18.80;;;;;;;15.34;100.00;99643.09;5061367;28;20029;-55
2022/08/31 04:38:12;;;;;;;33.15;18.90;;;;;;;15.39;100.00;99645.81;5062675;28;20036;-56
2022/08/31 04:40:39;;;;;;;32.60;17.67;;;;;;;15.42;100.00;99656.09;5064971;28;20035;-55
2022/08/31 04:43:04;;;;;;;30.63;18.63;;;;;;;15.40;100.00;99653.66;5067771;28;20074;-55
2022/08/31 04:45:30;;;;;;;32.65;18.55;;;;;;;15.54;100.00;99662.88;5054178;28;20029;-55
2022/08/31 04:47:55;;;;;;;32.45;19.40;;;;;;;15.60;100.00;99660.19;5055104;28;20375;-57
2022/08/31 04:50:21;;;;;;;31.23;19.38;;;;;;;15.59;100.00;99667.50;5069524;28;20498;-56
2022/08/31 04:52:49;;;;;;;34.72;18.55;;;;;;;15.54;100.00;99670.19;5069007;28;20017;-55
2022/08/31 04:55:15;;;;;;;35.65;18.70;;;;;;;15.58;100.00;99671.28;5100354;28;20039;-55
2022/08/31 04:57:40;;;;;;;29.45;18.65;;;;;;;15.65;100.00;99665.63;5067557;28;20020;-55
2022/08/31 05:00:06;;;;;;;31.80;16.60;;;;;;;15.56;100.00;99672.63;5067558;28;20020;-55
2022/08/31 05:02:32;;;;;;;37.00;17.23;;;;;;;15.41;100.00;99676.09;5071229;28;20116;-56
2022/08/31 05:04:59;;;;;;;30.50;16.45;;;;;;;15.30;100.00;99670.63;5085516;28;20041;-56
2022/08/31 05:07:25;;;;;;;31.63;18.02;;;;;;;15.24;100.00;99674.38;5053930;28;20373;-54
2022/08/31 05:09:51;;;;;;;32.70;18.02;;;;;;;15.18;100.00;99678.13;5054473;28;20032;-55
2022/08/31 05:12:16;;;;;;;35.38;18.33;;;;;;;15.17;100.00;99681.06;5054071;28;20028;-56
2022/08/31 05:14:42;;;;;;;35.00;19.15;;;;;;;15.23;100.00;99683.56;5053853;28;20021;-55
2022/08/31 05:17:08;;;;;;;33.00;19.17;;;;;;;15.29;100.00;99690.59;5059875;28;20048;-55
2022/08/31 05:19:34;;;;;;;40.97;19.90;;;;;;;15.31;100.00;99680.34;5065881;28;20025;-55
2022/08/31 05:21:59;;;;;;;35.20;19.90;;;;;;;15.20;100.00;99685.94;5060532;28;20048;-56
2022/08/31 05:24:25;;;;;;;36.78;19.83;;;;;;;15.23;100.00;99682.75;5063873;28;20036;-56
2022/08/31 05:26:53;;;;;;;34.80;17.48;;;;;;;15.16;100.00;99677.56;5067197;28;20383;-56
2022/08/31 05:29:20;;;;;;;34.13;19.67;;;;;;;15.21;100.00;99687.59;5069356;28;20032;-55
2022/08/31 05:31:46;;;;;;;38.17;21.35;;;;;;;15.13;100.00;99680.81;5059609;28;20025;-56
2022/08/31 05:34:13;;;;;;;39.40;22.45;;;;;;;15.09;100.00;99679.69;5064850;28;20033;-56
2022/08/31 05:36:39;;;;;;;38.67;21.08;;;;;;;15.10;100.00;99692.94;5059892;28;20467;-56
2022/08/31 05:39:08;;;;;;;42.60;22.35;;;;;;;15.21;100.00;99693.81;5061739;28;20500;-56
2022/08/31 05:41:34;;;;;;;36.95;21.13;;;;;;;15.30;100.00;99694.94;5063939;28;20032;-56
2022/08/31 05:44:01;;;;;;;46.20;23.20;;;;;;;15.36;100.00;99695.78;5070468;28;20028;-56
2022/08/31 05:46:27;;;;;;;42.95;22.27;;;;;;;15.42;100.00;99705.50;5067823;28;20047;-55
2022/08/31 05:48:53;;;;;;;42.65;20.98;;;;;;;15.51;100.00;99708.53;5068786;28;20052;-55
2022/08/31 05:51:21;;;;;;;35.60;21.15;;;;;;;15.49;100.00;99710.69;5057510;28;20074;-55
2022/08/31 05:53:47;;;;;;;34.97;19.83;;;;;;;15.51;100.00;99708.53;5068128;28;20025;-55
2022/08/31 05:56:14;;;;;;;33.58;19.02;;;;;;;15.58;100.00;99717.22;5064236;28;20025;-55
2022/08/31 05:58:41;;;;;;;30.90;19.13;;;;;;;15.49;100.00;99719.59;5070065;28;20052;-56
2022/08/31 06:01:14;;;;;;;35.58;19.70;;;;;;;15.48;100.00;99717.19;5069898;28;20410;-56
2022/08/31 06:03:40;;;;;;;40.47;18.65;;;;;;;15.48;100.00;99715.28;5063477;28;20039;-56
2022/08/31 06:06:08;;;;;;;37.67;20.25;;;;;;;15.58;100.00;99719.91;5069355;28;20094;-55
2022/08/31 06:08:35;;;;;;;30.38;18.35;;;;;;;15.56;100.00;99726.66;5066568;28;20029;-55
2022/08/31 06:11:00;;;;;;;35.13;19.27;;;;;;;15.56;100.00;99724.78;5069789;28;20115;-55
2022/08/31 06:13:26;;;;;;;34.28;17.65;;;;;;;15.62;100.00;99721.00;5069896;28;20082;-55
2022/08/31 06:15:52;;;;;;;33.50;18.73;;;;;;;15.81;100.00;99728.69;5065162;28;20028;-56
2022/08/31 06:18:19;;;;;;;36.75;18.33;;;;;;;15.79;100.00;99728.94;5065808;28;20488;-55
2022/08/31 06:20:45;;;;;;;31.38;19.05;;;;;;;15.86;100.00;99726.00;5069353;28;20028;-56
2022/08/31 06:23:10;;;;;;;38.63;20.10;;;;;;;15.88;100.00;99734.66;5054195;28;20070;-55
2022/08/31 06:25:36;;;;;;;34.60;18.98;;;;;;;15.96;100.00;99739.56;5063405;28;20031;-56
2022/08/31 06:28:05;;;;;;;24.90;16.05;;;;;;;15.99;100.00;99735.50;5053016;28;20025;-54
2022/08/31 06:30:32;;;;;;;28.13;17.60;;;;;;;16.06;100.00;99728.78;5068815;28;20044;-55
2022/08/31 06:32:57;;;;;;;40.00;17.08;;;;;;;15.86;100.00;99736.81;5064335;28;20277;-56
2022/08/31 06:35:22;;;;;;;31.88;17.75;;;;;;;15.90;100.00;99727.91;5069281;28;20027;-54
2022/08/31 06:37:48;;;;;;;38.15;18.77;;;;;;;15.90;100.00;99732.50;5064480;28;20471;-55
2022/08/31 06:40:13;;;;;;;32.58;17.83;;;;;;;15.99;100.00;99733.59;5065211;28;20388;-56
2022/08/31 06:42:39;;;;;;;25.33;16.48;;;;;;;15.72;100.00;99729.22;5052390;28;20097;-55
2022/08/31 06:45:05;;;;;;;28.35;18.17;;;;;;;15.95;100.00;99738.75;5060600;28;20605;-55
2022/08/31 06:47:30;;;;;;;30.60;18.50;;;;;;;16.07;100.00;99741.19;5058443;28;20055;-55
2022/08/31 06:49:56;;;;;;;32.05;18.27;;;;;;;16.15;100.00;99740.69;5062250;28;20056;-55
2022/08/31 06:52:22;;;;;;;26.98;16.70;;;;;;;16.34;100.00;99741.00;5069566;28;20127;-55
2022/08/31 06:54:47;;;;;;;29.08;16.92;;;;;;;16.55;100.00;99744.56;5069441;28;20028;-55
2022/08/31 06:57:13;;;;;;;29.50;16.25;;;;;;;16.86;100.00;99752.72;5069099;28;20035;-55
2022/08/31 06:59:38;;;;;;;30.58;16.25;;;;;;;17.09;95.94;99742.41;5070616;28;20022;-55
2022/08/31 07:02:04;;;;;;;28.50;15.13;;;;;;;17.34;95.88;99750.47;5063924;28;20016;-55
2022/08/31 07:04:33;;;;;;;30.08;14.65;;;;;;;17.48;94.67;99752.63;5067594;28;20069;-55
2022/08/31 07:06:59;;;;;;;24.00;13.68;;;;;;;17.75;92.16;99755.78;5063400;28;20028;-55
2022/08/31 07:09:24;;;;;;;23.35;13.57;;;;;;;17.70;91.69;99753.09;5060871;28;20037;-55
2022/08/31 07:11:50;;;;;;;20.85;12.15;;;;;;;17.32;90.45;99752.66;5058711;28;20039;-56
2022/08/31 07:14:18;;;;;;;28.13;13.75;;;;;;;17.64;89.69;99759.63;5058614;28;20038;-56
2022/08/31 07:16:43;;;;;;;20.20;12.20;;;;;;;17.74;88.92;99756.06;5059514;28;20033;-56
2022/08/31 07:19:10;;;;;;;23.50;12.80;;;;;;;18.03;88.53;99758.97;5100764;28;20431;-55
2022/08/31 07:21:51;;;;;;;26.17;13.05;;;;;;;18.10;88.17;99756.75;5068848;28;20135;-55
2022/08/31 07:24:23;;;;;;;20.50;12.80;;;;;;;18.45;86.35;99755.72;5093930;28;20024;-55
2022/08/31 07:26:53;;;;;;;20.20;11.85;;;;;;;18.61;84.35;99761.06;5060291;28;20462;-56
2022/08/31 07:29:20;;;;;;;20.35;11.75;;;;;;;18.74;84.13;99761.19;5097270;28;20029;-55
2022/08/31 07:31:45;;;;;;;22.30;11.45;;;;;;;18.82;82.70;99767.16;5062196;28;20052;-56
2022/08/31 07:34:12;;;;;;;18.67;12.57;;;;;;;18.94;82.22;99764.88;5066688;28;20062;-54
2022/08/31 07:42:08;;;;;;;24.20;11.35;;;;;;;18.58;81.71;99762.44;5068610;28;20070;-53
2022/08/31 07:42:10;;;;;;;19.05;10.57;;;;;;;19.86;77.67;99763.16;5075250;28;20070;-53
2022/08/31 07:44:38;;;;;;;20.98;10.52;;;;;;;21.03;75.04;99763.38;5055709;28;20043;-54
2022/08/31 07:47:07;;;;;;;19.25;10.07;;;;;;;21.05;73.60;99766.63;5067381;28;20474;-55
2022/08/31 07:49:34;;;;;;;18.38;9.20;;;;;;;21.35;71.11;99769.91;5102043;28;20475;-55
2022/08/31 07:51:59;;;;;;;16.73;8.93;;;;;;;22.20;68.80;99773.97;5072142;28;20498;-55
2022/08/31 07:54:27;;;;;;;18.75;10.00;;;;;;;21.54;68.28;99773.38;5066373;28;20074;-55
2022/08/31 07:57:02;;;;;;;15.27;9.70;;;;;;;21.73;69.57;99776.03;5068445;28;20037;-56
2022/08/31 07:59:28;;;;;;;13.55;8.82;;;;;;;23.03;63.31;99765.50;5089158;28;20025;-55
2022/08/31 08:01:55;;;;;;;18.33;8.55;;;;;;;23.31;62.80;99768.88;5064802;28;20021;-55
2022/08/31 08:04:26;;;;;;;18.23;9.85;;;;;;;22.93;63.47;99772.00;5072003;28;20052;-55
2022/08/31 08:06:55;;;;;;;16.42;9.30;;;;;;;21.20;68.78;99779.97;5071611;28;20048;-55
2022/08/31 08:09:29;;;;;;;21.02;9.55;;;;;;;21.91;68.41;99774.28;5063455;28;20028;-56
2022/08/31 08:11:56;;;;;;;14.52;9.50;;;;;;;20.84;69.41;99766.97;5070573;28;20021;-55
2022/08/31 08:14:26;;;;;;;17.38;10.02;;;;;;;20.34;73.73;99766.59;5067671;28;20029;-56
2022/08/31 08:16:52;;;;;;;16.40;9.38;;;;;;;20.63;73.93;99771.09;5094970;28;20381;-55
2022/08/31 08:19:17;;;;;;;17.00;9.70;;;;;;;21.31;72.59;99772.41;5058921;28;20029;-55
2022/08/31 08:21:44;;;;;;;17.65;9.63;;;;;;;21.65;70.33;99768.56;5066531;28;20029;-55
2022/08/31 08:24:10;;;;;;;17.90;9.48;;;;;;;20.81;71.52;99769.47;5071729;28;20024;-55
2022/08/31 08:26:36;;;;;;;24.42;9.65;;;;;;;21.16;71.03;99772.69;5063924;28;20039;-56
2022/08/31 08:29:04;;;;;;;14.93;9.05;;;;;;;20.75;72.24;99776.91;5054915;28;20021;-55
2022/08/31 08:31:29;;;;;;;16.65;10.10;;;;;;;20.92;70.86;99776.38;5067976;28;20542;-59
2022/08/31 08:33:55;;;;;;;16.95;10.05;;;;;;;21.05;73.04;99777.53;5067862;28;20409;-54
2022/08/31 08:36:20;;;;;;;27.08;9.95;;;;;;;21.00;72.22;99780.34;5064794;28;20052;-55
2022/08/31 08:38:49;;;;;;;27.88;9.82;;;;;;;20.34;73.55;99769.31;5068182;28;20463;-55
2022/08/31 08:41:20;;;;;;;32.42;11.25;;;;;;;19.47;76.65;99778.53;5071677;28;20382;-54
2022/08/31 08:43:49;;;;;;;21.00;9.20;;;;;;;20.10;73.75;99782.19;5071148;28;20036;-56
2022/08/31 08:46:14;;;;;;;28.52;9.55;;;;;;;19.73;75.18;99778.28;5064929;28;20299;-55
2022/08/31 08:48:40;;;;;;;27.08;9.88;;;;;;;19.66;75.82;99767.69;5066591;28;20353;-55
2022/08/31 08:51:15;;;;;;;24.15;9.80;;;;;;;19.53;76.09;99787.44;5083948;28;20112;-55
2022/08/31 08:53:41;;;;;;;25.08;9.98;;;;;;;19.79;76.22;99777.09;5043244;28;20025;-54
2022/08/31 08:56:10;;;;;;;29.42;10.48;;;;;;;19.42;76.45;99781.31;5061648;28;20040;-55
2022/08/31 08:58:42;;;;;;;16.77;9.77;;;;;;;19.40;75.56;99787.00;5061092;28;20422;-55
2022/08/31 09:01:10;;;;;;;19.42;11.23;;;;;;;18.97;78.31;99786.06;5050535;28;20064;-53
2022/08/31 09:04:05;;;;;;;20.92;10.93;;;;;;;19.70;75.28;99787.00;5061181;28;20031;-54
2022/08/31 09:06:42;;;;;;;20.02;10.00;;;;;;;19.72;75.71;99791.06;5069166;28;20533;-54
2022/08/31 09:09:26;;;;;;;20.98;10.90;;;;;;;20.03;74.82;99796.13;5064308;28;20067;-54
2022/08/31 09:12:17;;;;;;;35.55;12.18;;;;;;;19.85;74.55;99795.00;5061531;28;20033;-55
2022/08/31 09:14:47;;;;;;;26.52;11.48;;;;;;;19.88;75.97;99797.13;5065200;28;20036;-55
2022/08/31 09:17:30;;;;;;;24.33;11.48;;;;;;;20.25;73.28;99807.28;5060916;28;20116;-55
2022/08/31 09:19:59;;;;;;;20.55;11.05;;;;;;;19.98;74.45;99805.16;5065318;28;20047;-55
2022/08/31 09:22:25;;;;;;;22.80;11.60;;;;;;;20.15;73.95;99804.69;5069209;28;20058;-55
2022/08/31 09:24:54;;;;;;;27.45;11.15;;;;;;;20.18;73.96;99806.81;5069653;28;20028;-54
2022/08/31 09:27:45;;;;;;;21.88;11.02;;;;;;;20.28;73.23;99805.88;5063174;28;20237;-54
2022/08/31 09:30:16;;;;;;;26.38;11.75;;;;;;;20.15;73.90;99803.88;5053881;28;20037;-55
2022/08/31 09:32:52;;;;;;;21.50;11.90;;;;;;;19.60;75.88;99805.03;5050339;28;20046;-57
2022/08/31 09:35:39;;;;;;;24.17;11.63;;;;;;;20.02;76.27;99795.31;5064008;28;20065;-55
2022/08/31 09:38:09;;;;;;;25.20;11.95;;;;;;;20.16;73.87;99808.22;5070042;28;20475;-55
2022/08/31 09:40:42;;;;;;;18.63;12.02;;;;;;;20.53;72.22;99802.00;5070350;28;20032;-55
2022/08/31 09:43:24;;;;;;;29.42;11.65;;;;;;;20.81;71.45;99808.41;5066784;28;20032;-55
2022/08/31 09:45:54;;;;;;;22.08;11.68;;;;;;;20.35;73.97;99810.97;5040754;28;20029;-54
2022/08/31 09:48:44;;;;;;;;;;;;;;;21.39;68.96;99807.22;5102409;28;20031;-56
2022/08/31 09:51:34;;;;;;;24.05;10.38;;;;;;;22.58;64.22;99801.78;5067330;28;19920;-56
2022/08/31 09:57:06;;;;;;;15.82;10.75;;;;;;;21.99;65.60;99800.88;5061618;28;20114;-55
2022/08/31 09:59:46;;;;;;;14.63;9.00;;;;;;;23.67;59.55;99798.00;5060421;28;20025;-57
2022/08/31 10:02:12;;;;;;;14.38;9.30;;;;;;;23.32;60.97;99803.31;5059101;28;20391;-55
2022/08/31 10:04:51;;;;;;;17.77;9.30;;;;;;;23.92;57.99;99801.19;5056892;28;20053;-55
2022/08/31 10:07:23;;;;;;;13.27;8.00;;;;;;;23.69;60.48;99806.72;5058432;28;20029;-54
2022/08/31 10:10:06;;;;;;;15.70;9.15;;;;;;;23.16;60.25;99799.34;5069506;28;20024;-55
2022/08/31 10:12:51;;;;;;;18.58;8.82;;;;;;;23.08;61.75;99813.78;5064084;28;20070;-55
2022/08/31 10:15:38;;;;;;;14.45;8.43;;;;;;;22.39;62.93;99809.34;5067473;28;20379;-56
2022/08/31 10:18:16;;;;;;;15.98;8.25;;;;;;;21.60;64.42;99806.84;5067006;28;20444;-57
2022/08/31 10:21:20;;;;;;;16.95;7.88;;;;;;;21.81;62.41;99810.78;5048789;28;20025;-54
2022/08/31 10:23:53;;;;;;;17.52;7.65;;;;;;;20.87;65.48;99809.16;5034621;28;20073;-55
2022/08/31 10:26:27;;;;;;;13.30;7.32;;;;;;;21.28;63.58;99814.72;5052770;28;20119;-55
2022/08/31 10:28:54;;;;;;;11.38;7.35;;;;;;;21.87;62.17;99811.50;5069347;28;20519;-55
2022/08/31 10:31:44;;;;;;;13.00;8.05;;;;;;;20.82;64.16;99815.47;5068291;28;20062;-55
2022/08/31 10:37:15;;;;;;;11.70;7.38;;;;;;;21.18;64.36;99811.38;5065128;28;20089;-56
2022/08/31 10:39:46;;;;;;;11.45;7.15;;;;;;;21.21;64.60;99814.28;5069077;28;20035;-57
2022/08/31 10:42:18;;;;;;;12.80;7.35;;;;;;;21.28;64.66;99805.72;5049700;28;20021;-56
2022/08/31 10:44:51;;;;;;;15.40;7.80;;;;;;;21.98;62.27;99810.97;5090853;28;20501;-56
2022/08/31 10:47:17;;;;;;;12.27;7.45;;;;;;;21.49;63.03;99811.66;5054176;28;20059;-56
2022/08/31 10:49:42;;;;;;;17.42;7.57;;;;;;;21.25;64.46;99809.06;5057163;28;20086;-56
2022/08/31 10:52:44;;;;;;;11.77;7.10;;;;;;;21.90;62.83;99805.44;5083898;28;20471;-57
2022/08/31 10:55:22;;;;;;;11.90;7.10;;;;;;;21.48;64.49;99813.56;5045593;28;20075;-56
2022/08/31 10:58:03;;;;;;;10.55;7.05;;;;;;;21.40;64.77;99816.19;5066283;28;20538;-56
2022/08/31 11:00:41;;;;;;;11.68;7.25;;;;;;;21.31;64.60;99810.59;5055679;28;20025;-56
2022/08/31 11:03:22;;;;;;;11.45;7.60;;;;;;;21.67;63.04;99810.78;5092708;28;20375;-56
2022/08/31 11:05:59;;;;;;;11.20;7.22;;;;;;;21.12;64.84;99816.09;5062287;28;20033;-55
2022/08/31 11:08:34;;;;;;;13.77;7.55;;;;;;;21.27;64.28;99812.31;5058805;28;20052;-57
2022/08/31 11:10:59;;;;;;;11.88;7.75;;;;;;;21.65;62.90;99813.00;5069357;28;20036;-55
2022/08/31 11:13:30;;;;;;;13.50;7.57;;;;;;;22.01;62.86;99820.47;5067802;28;20032;-54
2022/08/31 11:16:01;;;;;;;11.77;7.18;;;;;;;21.53;62.52;99812.69;5051397;28;20033;-54
2022/08/31 11:19:06;;;;;;;12.15;7.38;;;;;;;20.74;64.42;99807.16;5058951;28;20020;-54
2022/08/31 11:22:01;;;;;;;16.50;7.78;;;;;;;21.61;62.32;99822.88;5048477;28;20495;-56
2022/08/31 11:24:48;;;;;;;9.80;6.97;;;;;;;21.13;65.10;99816.91;5067720;28;20480;-56
2022/08/31 11:27:38;;;;;;;13.77;7.47;;;;;;;20.90;64.50;99812.06;5067179;28;20071;-54
2022/08/31 11:30:10;;;;;;;11.65;7.78;;;;;;;20.80;65.08;99814.16;5069991;28;20021;-56
2022/08/31 11:32:46;;;;;;;14.23;7.53;;;;;;;20.80;66.82;99809.50;5060286;28;20116;-56
2022/08/31 11:35:14;;;;;;;11.27;7.85;;;;;;;20.99;65.59;99805.94;5071668;28;20024;-56
2022/08/31 11:37:49;;;;;;;11.23;7.80;;;;;;;21.10;65.26;99810.13;5071201;28;20032;-56
2022/08/31 11:40:40;;;;;;;14.13;8.30;;;;;;;20.87;65.14;99800.97;5068686;28;20394;-55